Terminal Aerodrome Forecast
Issued by NWS Wilmington, OH

Current Version | Previous Version | Graphics & Text | Print | Product List | Glossary On
Versions: 1 2 3 4 5 6 7 8 9 10 11 12 13 14 15 16 17 18 19 20 21 22 23 24 25 26 27 28 29 30
000
FTUS41 KILN 012000 AAB
TAFCVG
TAF AMD
KCVG 012057Z 0121/0224 25004KT 3SM BR VCSH OVC009
      TEMPO 0121/0123 1SM -RASNPL OVC005
     FM012300 28006KT 4SM BR OVC012
     FM020300 30008KT P6SM OVC015
     FM021400 36005KT P6SM SCT020
      TEMPO 0215/0219 BKN020=

USA.gov is the U.S. government's official web portal to all federal, state and local government web resources and services.